sensor_id;sensor_type;location;lat;lon;timestamp;temperature;humidity
12408;DHT22;6268;48.188;17.134;2023-02-22T00:01:14;11.10;99.90
12408;DHT22;6268;48.188;17.134;2023-02-22T00:04:02;11.00;99.90
12408;DHT22;6268;48.188;17.134;2023-02-22T00:06:34;11.00;99.90
12408;DHT22;6268;48.188;17.134;2023-02-22T00:09:03;11.00;99.90
12408;DHT22;6268;48.188;17.134;2023-02-22T00:11:34;11.00;99.90
12408;DHT22;6268;48.188;17.134;2023-02-22T00:14:04;11.00;99.90
12408;DHT22;6268;48.188;17.134;2023-02-22T00:16:33;10.90;99.90
12408;DHT22;6268;48.188;17.134;2023-02-22T00:19:02;10.90;99.90
12408;DHT22;6268;48.188;17.134;2023-02-22T00:21:32;10.90;99.90
12408;DHT22;6268;48.188;17.134;2023-02-22T00:24:04;10.90;99.90
12408;DHT22;6268;48.188;17.134;2023-02-22T00:26:50;10.80;99.90
12408;DHT22;6268;48.188;17.134;2023-02-22T00:29:22;10.80;99.90
12408;DHT22;6268;48.188;17.134;2023-02-22T00:31:51;10.80;99.90
12408;DHT22;6268;48.188;17.134;2023-02-22T00:34:20;10.70;99.90
12408;DHT22;6268;48.188;17.134;2023-02-22T00:36:52;10.70;99.90
12408;DHT22;6268;48.188;17.134;2023-02-22T00:39:21;10.70;99.90
12408;DHT22;6268;48.188;17.134;2023-02-22T00:41:49;10.70;99.90
12408;DHT22;6268;48.188;17.134;2023-02-22T00:44:19;10.70;99.90
12408;DHT22;6268;48.188;17.134;2023-02-22T00:46:48;10.70;99.90
12408;DHT22;6268;48.188;17.134;2023-02-22T00:49:17;10.70;99.90
12408;DHT22;6268;48.188;17.134;2023-02-22T00:51:46;10.70;99.90
12408;DHT22;6268;48.188;17.134;2023-02-22T00:54:16;10.60;99.90
12408;DHT22;6268;48.188;17.134;2023-02-22T00:56:46;10.60;99.90
12408;DHT22;6268;48.188;17.134;2023-02-22T00:59:16;10.60;99.90
12408;DHT22;6268;48.188;17.134;2023-02-22T01:01:45;10.60;99.90
12408;DHT22;6268;48.188;17.134;2023-02-22T01:04:14;10.60;99.90
12408;DHT22;6268;48.188;17.134;2023-02-22T01:06:44;10.50;99.90
12408;DHT22;6268;48.188;17.134;2023-02-22T01:09:13;10.50;99.90
12408;DHT22;6268;48.188;17.134;2023-02-22T01:11:43;10.40;99.90
12408;DHT22;6268;48.188;17.134;2023-02-22T01:14:13;10.40;99.90
12408;DHT22;6268;48.188;17.134;2023-02-22T01:16:42;10.40;99.90
12408;DHT22;6268;48.188;17.134;2023-02-22T01:19:11;10.40;99.90
12408;DHT22;6268;48.188;17.134;2023-02-22T01:21:40;10.30;99.90
12408;DHT22;6268;48.188;17.134;2023-02-22T01:24:09;10.30;99.90
12408;DHT22;6268;48.188;17.134;2023-02-22T01:26:49;10.30;99.90
12408;DHT22;6268;48.188;17.134;2023-02-22T01:29:19;10.30;99.90
12408;DHT22;6268;48.188;17.134;2023-02-22T01:31:53;10.30;99.90
12408;DHT22;6268;48.188;17.134;2023-02-22T01:34:23;10.30;99.90
12408;DHT22;6268;48.188;17.134;2023-02-22T01:36:53;10.20;99.90
12408;DHT22;6268;48.188;17.134;2023-02-22T01:39:22;10.20;99.90
12408;DHT22;6268;48.188;17.134;2023-02-22T01:41:53;10.10;99.90
12408;DHT22;6268;48.188;17.134;2023-02-22T01:44:27;10.10;99.90
12408;DHT22;6268;48.188;17.134;2023-02-22T01:46:59;10.10;99.90
12408;DHT22;6268;48.188;17.134;2023-02-22T01:49:32;10.00;99.90
12408;DHT22;6268;48.188;17.134;2023-02-22T01:52:06;10.00;99.90
12408;DHT22;6268;48.188;17.134;2023-02-22T01:54:39;10.00;99.90
12408;DHT22;6268;48.188;17.134;2023-02-22T01:57:21;9.90;99.90
12408;DHT22;6268;48.188;17.134;2023-02-22T01:59:56;9.80;99.90
12408;DHT22;6268;48.188;17.134;2023-02-22T02:02:36;9.80;99.90
12408;DHT22;6268;48.188;17.134;2023-02-22T02:05:07;9.80;99.90
12408;DHT22;6268;48.188;17.134;2023-02-22T02:07:37;9.70;99.90
12408;DHT22;6268;48.188;17.134;2023-02-22T02:10:10;9.70;99.90
12408;DHT22;6268;48.188;17.134;2023-02-22T02:12:44;9.70;99.90
12408;DHT22;6268;48.188;17.134;2023-02-22T02:15:21;9.60;99.90
12408;DHT22;6268;48.188;17.134;2023-02-22T02:17:52;9.60;99.90
12408;DHT22;6268;48.188;17.134;2023-02-22T02:20:27;9.60;99.90
12408;DHT22;6268;48.188;17.134;2023-02-22T02:23:07;9.50;99.90
12408;DHT22;6268;48.188;17.134;2023-02-22T02:26:06;9.60;99.90
12408;DHT22;6268;48.188;17.134;2023-02-22T02:29:10;9.60;99.90
12408;DHT22;6268;48.188;17.134;2023-02-22T02:35:18;9.50;99.90
12408;DHT22;6268;48.188;17.134;2023-02-22T02:37:56;9.50;99.90
12408;DHT22;6268;48.188;17.134;2023-02-22T02:40:34;9.50;99.90
12408;DHT22;6268;48.188;17.134;2023-02-22T02:43:13;9.40;99.90
12408;DHT22;6268;48.188;17.134;2023-02-22T02:45:48;9.40;99.90
12408;DHT22;6268;48.188;17.134;2023-02-22T02:48:26;9.30;99.90
12408;DHT22;6268;48.188;17.134;2023-02-22T02:51:00;9.30;99.90
12408;DHT22;6268;48.188;17.134;2023-02-22T02:53:34;9.30;99.90
12408;DHT22;6268;48.188;17.134;2023-02-22T02:56:06;9.30;99.90
12408;DHT22;6268;48.188;17.134;2023-02-22T02:58:45;9.30;99.90
12408;DHT22;6268;48.188;17.134;2023-02-22T03:01:32;9.30;99.90
12408;DHT22;6268;48.188;17.134;2023-02-22T03:04:30;9.30;99.90
12408;DHT22;6268;48.188;17.134;2023-02-22T03:07:28;9.30;99.90
12408;DHT22;6268;48.188;17.134;2023-02-22T03:10:19;9.40;99.90
12408;DHT22;6268;48.188;17.134;2023-02-22T03:13:00;9.40;99.90
12408;DHT22;6268;48.188;17.134;2023-02-22T03:15:47;9.40;99.90
12408;DHT22;6268;48.188;17.134;2023-02-22T03:18:25;9.40;99.90
12408;DHT22;6268;48.188;17.134;2023-02-22T03:21:08;9.40;99.90
12408;DHT22;6268;48.188;17.134;2023-02-22T03:23:47;9.40;99.90
12408;DHT22;6268;48.188;17.134;2023-02-22T03:26:28;9.40;99.90
12408;DHT22;6268;48.188;17.134;2023-02-22T03:29:02;9.40;99.90
12408;DHT22;6268;48.188;17.134;2023-02-22T03:31:37;9.40;99.90
12408;DHT22;6268;48.188;17.134;2023-02-22T03:34:11;9.40;99.90
12408;DHT22;6268;48.188;17.134;2023-02-22T03:36:47;9.40;99.90
12408;DHT22;6268;48.188;17.134;2023-02-22T03:39:22;9.30;99.90
12408;DHT22;6268;48.188;17.134;2023-02-22T03:42:02;9.30;99.90
12408;DHT22;6268;48.188;17.134;2023-02-22T03:44:35;9.30;99.90
12408;DHT22;6268;48.188;17.134;2023-02-22T03:47:13;9.30;99.90
12408;DHT22;6268;48.188;17.134;2023-02-22T03:49:50;9.30;99.90
12408;DHT22;6268;48.188;17.134;2023-02-22T03:52:26;9.30;99.90
12408;DHT22;6268;48.188;17.134;2023-02-22T03:54:55;9.30;99.90
12408;DHT22;6268;48.188;17.134;2023-02-22T03:57:26;9.30;99.90
12408;DHT22;6268;48.188;17.134;2023-02-22T03:59:57;9.20;99.90
12408;DHT22;6268;48.188;17.134;2023-02-22T04:02:26;9.20;99.90
12408;DHT22;6268;48.188;17.134;2023-02-22T04:04:55;9.20;99.90
12408;DHT22;6268;48.188;17.134;2023-02-22T04:07:26;9.10;99.90
12408;DHT22;6268;48.188;17.134;2023-02-22T04:09:55;9.10;99.90
12408;DHT22;6268;48.188;17.134;2023-02-22T04:12:23;9.10;99.90
12408;DHT22;6268;48.188;17.134;2023-02-22T04:14:52;9.10;99.90
12408;DHT22;6268;48.188;17.134;2023-02-22T04:17:21;9.10;99.90
12408;DHT22;6268;48.188;17.134;2023-02-22T04:19:50;9.10;99.90
12408;DHT22;6268;48.188;17.134;2023-02-22T04:22:18;9.10;99.90
12408;DHT22;6268;48.188;17.134;2023-02-22T04:24:49;9.10;99.90
12408;DHT22;6268;48.188;17.134;2023-02-22T04:27:17;9.10;99.90
12408;DHT22;6268;48.188;17.134;2023-02-22T04:29:46;9.10;99.90
12408;DHT22;6268;48.188;17.134;2023-02-22T04:32:15;9.10;99.90
12408;DHT22;6268;48.188;17.134;2023-02-22T04:34:44;9.10;99.90
12408;DHT22;6268;48.188;17.134;2023-02-22T04:37:13;9.10;99.90
12408;DHT22;6268;48.188;17.134;2023-02-22T04:39:42;9.10;99.90
12408;DHT22;6268;48.188;17.134;2023-02-22T04:42:12;9.10;99.90
12408;DHT22;6268;48.188;17.134;2023-02-22T04:44:41;9.00;99.90
12408;DHT22;6268;48.188;17.134;2023-02-22T04:47:10;9.00;99.90
12408;DHT22;6268;48.188;17.134;2023-02-22T04:49:39;9.00;99.90
12408;DHT22;6268;48.188;17.134;2023-02-22T04:52:08;9.00;99.90
12408;DHT22;6268;48.188;17.134;2023-02-22T04:54:37;9.00;99.90
12408;DHT22;6268;48.188;17.134;2023-02-22T04:57:06;9.00;99.90
12408;DHT22;6268;48.188;17.134;2023-02-22T04:59:36;9.00;99.90
12408;DHT22;6268;48.188;17.134;2023-02-22T05:02:05;9.00;99.90
12408;DHT22;6268;48.188;17.134;2023-02-22T05:04:35;9.00;99.90
12408;DHT22;6268;48.188;17.134;2023-02-22T05:07:05;9.00;99.90
12408;DHT22;6268;48.188;17.134;2023-02-22T05:09:34;9.00;99.90
12408;DHT22;6268;48.188;17.134;2023-02-22T05:12:03;9.00;99.90
12408;DHT22;6268;48.188;17.134;2023-02-22T05:14:32;9.00;99.90
12408;DHT22;6268;48.188;17.134;2023-02-22T05:17:03;9.00;99.90
12408;DHT22;6268;48.188;17.134;2023-02-22T05:19:32;9.00;99.90
12408;DHT22;6268;48.188;17.134;2023-02-22T05:22:00;9.00;99.90
12408;DHT22;6268;48.188;17.134;2023-02-22T05:24:29;9.00;99.90
12408;DHT22;6268;48.188;17.134;2023-02-22T05:26:58;9.00;99.90
12408;DHT22;6268;48.188;17.134;2023-02-22T05:29:27;8.90;99.90
12408;DHT22;6268;48.188;17.134;2023-02-22T05:31:56;8.90;99.90
12408;DHT22;6268;48.188;17.134;2023-02-22T05:34:27;8.90;99.90
12408;DHT22;6268;48.188;17.134;2023-02-22T05:36:57;8.80;99.90
12408;DHT22;6268;48.188;17.134;2023-02-22T05:39:25;8.80;99.90
12408;DHT22;6268;48.188;17.134;2023-02-22T05:41:54;8.80;99.90
12408;DHT22;6268;48.188;17.134;2023-02-22T05:44:24;8.70;99.90
12408;DHT22;6268;48.188;17.134;2023-02-22T05:46:54;8.60;99.90
12408;DHT22;6268;48.188;17.134;2023-02-22T05:49:22;8.60;99.90
12408;DHT22;6268;48.188;17.134;2023-02-22T05:51:53;8.50;99.90
12408;DHT22;6268;48.188;17.134;2023-02-22T05:54:25;8.50;99.90
12408;DHT22;6268;48.188;17.134;2023-02-22T05:56:54;8.60;99.90
12408;DHT22;6268;48.188;17.134;2023-02-22T05:59:23;8.60;99.90
12408;DHT22;6268;48.188;17.134;2023-02-22T06:01:52;8.60;99.90
12408;DHT22;6268;48.188;17.134;2023-02-22T06:04:21;8.60;99.90
12408;DHT22;6268;48.188;17.134;2023-02-22T06:06:50;8.70;99.90
12408;DHT22;6268;48.188;17.134;2023-02-22T06:09:20;8.70;99.90
12408;DHT22;6268;48.188;17.134;2023-02-22T06:11:49;8.70;99.90
12408;DHT22;6268;48.188;17.134;2023-02-22T06:14:20;8.80;99.90
12408;DHT22;6268;48.188;17.134;2023-02-22T06:16:53;8.80;99.90
12408;DHT22;6268;48.188;17.134;2023-02-22T06:19:23;8.70;99.90
12408;DHT22;6268;48.188;17.134;2023-02-22T06:21:55;8.80;99.90
12408;DHT22;6268;48.188;17.134;2023-02-22T06:24:26;8.80;99.90
12408;DHT22;6268;48.188;17.134;2023-02-22T06:26:56;8.80;99.90
12408;DHT22;6268;48.188;17.134;2023-02-22T06:29:27;8.90;99.90
12408;DHT22;6268;48.188;17.134;2023-02-22T06:31:56;9.00;99.90
12408;DHT22;6268;48.188;17.134;2023-02-22T06:34:25;9.00;99.90
12408;DHT22;6268;48.188;17.134;2023-02-22T06:36:55;8.90;99.90
12408;DHT22;6268;48.188;17.134;2023-02-22T06:39:26;9.00;99.90
12408;DHT22;6268;48.188;17.134;2023-02-22T06:41:55;9.00;99.90
12408;DHT22;6268;48.188;17.134;2023-02-22T06:44:24;9.10;99.90
12408;DHT22;6268;48.188;17.134;2023-02-22T06:46:53;9.20;99.90
12408;DHT22;6268;48.188;17.134;2023-02-22T06:49:22;9.20;99.90
12408;DHT22;6268;48.188;17.134;2023-02-22T06:51:54;9.20;99.90
12408;DHT22;6268;48.188;17.134;2023-02-22T06:54:23;9.20;99.90
12408;DHT22;6268;48.188;17.134;2023-02-22T06:56:53;9.20;99.90
12408;DHT22;6268;48.188;17.134;2023-02-22T06:59:22;9.30;99.90
12408;DHT22;6268;48.188;17.134;2023-02-22T07:01:51;9.30;99.90
12408;DHT22;6268;48.188;17.134;2023-02-22T07:04:20;9.30;99.90
12408;DHT22;6268;48.188;17.134;2023-02-22T07:06:49;9.30;99.90
12408;DHT22;6268;48.188;17.134;2023-02-22T07:09:19;9.30;99.90
12408;DHT22;6268;48.188;17.134;2023-02-22T07:11:49;9.40;99.90
12408;DHT22;6268;48.188;17.134;2023-02-22T07:14:18;9.50;99.90
12408;DHT22;6268;48.188;17.134;2023-02-22T07:16:47;9.50;99.90
12408;DHT22;6268;48.188;17.134;2023-02-22T07:19:16;9.60;99.90
12408;DHT22;6268;48.188;17.134;2023-02-22T07:21:45;9.70;99.90
12408;DHT22;6268;48.188;17.134;2023-02-22T07:24:15;9.70;99.90
12408;DHT22;6268;48.188;17.134;2023-02-22T07:26:45;9.80;99.90
12408;DHT22;6268;48.188;17.134;2023-02-22T07:29:14;9.90;99.90
12408;DHT22;6268;48.188;17.134;2023-02-22T07:31:43;9.90;99.90
12408;DHT22;6268;48.188;17.134;2023-02-22T07:34:13;9.90;99.90
12408;DHT22;6268;48.188;17.134;2023-02-22T07:36:42;10.00;99.90
12408;DHT22;6268;48.188;17.134;2023-02-22T07:39:11;10.00;99.90
12408;DHT22;6268;48.188;17.134;2023-02-22T07:41:40;10.10;99.90
12408;DHT22;6268;48.188;17.134;2023-02-22T07:44:10;10.20;99.90
12408;DHT22;6268;48.188;17.134;2023-02-22T07:46:39;10.20;99.90
12408;DHT22;6268;48.188;17.134;2023-02-22T07:49:08;10.30;99.90
12408;DHT22;6268;48.188;17.134;2023-02-22T07:51:37;10.40;99.90
12408;DHT22;6268;48.188;17.134;2023-02-22T07:54:05;10.50;99.90
12408;DHT22;6268;48.188;17.134;2023-02-22T07:56:34;10.60;99.90
12408;DHT22;6268;48.188;17.134;2023-02-22T07:59:03;10.80;99.90
12408;DHT22;6268;48.188;17.134;2023-02-22T08:01:34;10.90;99.90
12408;DHT22;6268;48.188;17.134;2023-02-22T08:04:03;10.90;99.90
12408;DHT22;6268;48.188;17.134;2023-02-22T08:06:33;11.00;99.90
12408;DHT22;6268;48.188;17.134;2023-02-22T08:09:02;11.10;99.90
12408;DHT22;6268;48.188;17.134;2023-02-22T08:11:31;11.10;99.90
12408;DHT22;6268;48.188;17.134;2023-02-22T08:14:00;11.10;99.90
12408;DHT22;6268;48.188;17.134;2023-02-22T08:16:29;11.20;99.90
12408;DHT22;6268;48.188;17.134;2023-02-22T08:18:59;11.30;99.90
12408;DHT22;6268;48.188;17.134;2023-02-22T08:21:28;11.30;99.90
12408;DHT22;6268;48.188;17.134;2023-02-22T08:23:57;11.50;99.90
12408;DHT22;6268;48.188;17.134;2023-02-22T08:26:26;11.50;99.90
12408;DHT22;6268;48.188;17.134;2023-02-22T08:28:55;11.60;99.90
12408;DHT22;6268;48.188;17.134;2023-02-22T08:31:24;11.70;99.90
12408;DHT22;6268;48.188;17.134;2023-02-22T08:33:53;11.80;99.90
12408;DHT22;6268;48.188;17.134;2023-02-22T08:36:24;11.90;99.90
12408;DHT22;6268;48.188;17.134;2023-02-22T08:38:53;12.10;99.90
12408;DHT22;6268;48.188;17.134;2023-02-22T08:41:22;12.20;99.90
12408;DHT22;6268;48.188;17.134;2023-02-22T08:43:51;12.50;99.90
12408;DHT22;6268;48.188;17.134;2023-02-22T08:46:20;12.70;99.90
12408;DHT22;6268;48.188;17.134;2023-02-22T08:48:49;13.00;99.90
12408;DHT22;6268;48.188;17.134;2023-02-22T08:51:19;13.30;99.90
12408;DHT22;6268;48.188;17.134;2023-02-22T08:53:50;13.50;99.90
12408;DHT22;6268;48.188;17.134;2023-02-22T08:56:19;13.80;99.90
12408;DHT22;6268;48.188;17.134;2023-02-22T08:58:49;14.10;99.90
12408;DHT22;6268;48.188;17.134;2023-02-22T09:01:18;14.50;99.90
12408;DHT22;6268;48.188;17.134;2023-02-22T09:03:59;14.60;99.90
12408;DHT22;6268;48.188;17.134;2023-02-22T09:06:29;14.80;99.90
12408;DHT22;6268;48.188;17.134;2023-02-22T09:08:59;15.20;99.90
12408;DHT22;6268;48.188;17.134;2023-02-22T09:11:28;15.40;99.90
12408;DHT22;6268;48.188;17.134;2023-02-22T09:13:57;15.60;99.90
12408;DHT22;6268;48.188;17.134;2023-02-22T09:16:26;15.70;99.90
12408;DHT22;6268;48.188;17.134;2023-02-22T09:18:55;16.50;99.90
12408;DHT22;6268;48.188;17.134;2023-02-22T09:21:24;16.90;99.90
12408;DHT22;6268;48.188;17.134;2023-02-22T09:23:53;17.10;99.90
12408;DHT22;6268;48.188;17.134;2023-02-22T09:26:24;17.20;99.30
12408;DHT22;6268;48.188;17.134;2023-02-22T09:28:53;17.20;99.00
12408;DHT22;6268;48.188;17.134;2023-02-22T09:31:22;17.40;98.90
12408;DHT22;6268;48.188;17.134;2023-02-22T09:33:51;17.50;96.50
12408;DHT22;6268;48.188;17.134;2023-02-22T09:36:20;17.50;96.40
12408;DHT22;6268;48.188;17.134;2023-02-22T09:38:52;17.50;95.40
12408;DHT22;6268;48.188;17.134;2023-02-22T09:41:26;17.50;95.10
12408;DHT22;6268;48.188;17.134;2023-02-22T09:44:14;17.40;94.60
12408;DHT22;6268;48.188;17.134;2023-02-22T09:46:50;17.20;93.90
12408;DHT22;6268;48.188;17.134;2023-02-22T09:49:26;16.90;93.50
12408;DHT22;6268;48.188;17.134;2023-02-22T09:52:01;16.80;94.80
12408;DHT22;6268;48.188;17.134;2023-02-22T09:54:37;16.80;94.70
12408;DHT22;6268;48.188;17.134;2023-02-22T09:57:13;16.60;94.60
12408;DHT22;6268;48.188;17.134;2023-02-22T09:59:55;16.50;93.60
12408;DHT22;6268;48.188;17.134;2023-02-22T10:02:31;16.50;94.50
12408;DHT22;6268;48.188;17.134;2023-02-22T10:05:11;16.40;93.50
12408;DHT22;6268;48.188;17.134;2023-02-22T10:07:49;16.20;93.20
12408;DHT22;6268;48.188;17.134;2023-02-22T10:10:22;16.00;95.20
12408;DHT22;6268;48.188;17.134;2023-02-22T10:13:00;16.00;95.10
12408;DHT22;6268;48.188;17.134;2023-02-22T10:15:44;15.90;95.10
12408;DHT22;6268;48.188;17.134;2023-02-22T10:21:51;15.50;94.60
12408;DHT22;6268;48.188;17.134;2023-02-22T10:24:48;15.30;96.10
12408;DHT22;6268;48.188;17.134;2023-02-22T10:27:31;15.40;95.70
12408;DHT22;6268;48.188;17.134;2023-02-22T10:30:07;15.40;94.90
12408;DHT22;6268;48.188;17.134;2023-02-22T10:32:54;15.30;94.40
12408;DHT22;6268;48.188;17.134;2023-02-22T10:35:31;15.20;94.70
12408;DHT22;6268;48.188;17.134;2023-02-22T10:38:11;15.20;94.70
12408;DHT22;6268;48.188;17.134;2023-02-22T10:40:48;15.30;97.90
12408;DHT22;6268;48.188;17.134;2023-02-22T10:43:21;15.00;99.90
12408;DHT22;6268;48.188;17.134;2023-02-22T10:45:56;15.00;99.90
12408;DHT22;6268;48.188;17.134;2023-02-22T10:48:31;15.00;99.90
12408;DHT22;6268;48.188;17.134;2023-02-22T10:51:06;15.10;99.90
12408;DHT22;6268;48.188;17.134;2023-02-22T10:53:37;15.40;99.90
12408;DHT22;6268;48.188;17.134;2023-02-22T10:56:15;15.60;99.50
12408;DHT22;6268;48.188;17.134;2023-02-22T10:58:50;15.30;98.20
12408;DHT22;6268;48.188;17.134;2023-02-22T11:01:27;15.20;99.30
12408;DHT22;6268;48.188;17.134;2023-02-22T11:04:09;15.30;99.90
12408;DHT22;6268;48.188;17.134;2023-02-22T11:06:42;15.20;99.90
12408;DHT22;6268;48.188;17.134;2023-02-22T11:09:15;15.10;99.90
12408;DHT22;6268;48.188;17.134;2023-02-22T11:11:50;15.10;99.90
12408;DHT22;6268;48.188;17.134;2023-02-22T11:14:35;15.10;99.90
12408;DHT22;6268;48.188;17.134;2023-02-22T11:17:08;15.00;99.90
12408;DHT22;6268;48.188;17.134;2023-02-22T11:19:46;15.00;99.90
12408;DHT22;6268;48.188;17.134;2023-02-22T11:22:22;15.10;99.90
12408;DHT22;6268;48.188;17.134;2023-02-22T11:24:57;14.90;99.90
12408;DHT22;6268;48.188;17.134;2023-02-22T11:27:34;15.00;99.90
12408;DHT22;6268;48.188;17.134;2023-02-22T11:30:28;15.20;99.90
12408;DHT22;6268;48.188;17.134;2023-02-22T11:33:12;15.30;99.90
12408;DHT22;6268;48.188;17.134;2023-02-22T11:35:52;15.40;99.90
12408;DHT22;6268;48.188;17.134;2023-02-22T11:38:23;15.60;99.90
12408;DHT22;6268;48.188;17.134;2023-02-22T11:41:15;15.70;99.90
12408;DHT22;6268;48.188;17.134;2023-02-22T11:43:47;15.70;99.90
12408;DHT22;6268;48.188;17.134;2023-02-22T11:46:18;15.60;99.60
12408;DHT22;6268;48.188;17.134;2023-02-22T11:49:00;15.60;99.90
12408;DHT22;6268;48.188;17.134;2023-02-22T11:54:53;15.60;99.90
12408;DHT22;6268;48.188;17.134;2023-02-22T11:58:09;15.60;98.00
12408;DHT22;6268;48.188;17.134;2023-02-22T12:00:57;15.30;98.30
12408;DHT22;6268;48.188;17.134;2023-02-22T12:04:04;15.30;98.50
12408;DHT22;6268;48.188;17.134;2023-02-22T12:07:00;15.40;97.40
12408;DHT22;6268;48.188;17.134;2023-02-22T12:09:44;15.40;96.30
12408;DHT22;6268;48.188;17.134;2023-02-22T12:12:22;15.40;96.30
12408;DHT22;6268;48.188;17.134;2023-02-22T12:15:04;15.50;96.30
12408;DHT22;6268;48.188;17.134;2023-02-22T12:17:50;15.60;95.60
12408;DHT22;6268;48.188;17.134;2023-02-22T12:20:33;15.60;95.70
12408;DHT22;6268;48.188;17.134;2023-02-22T12:23:13;15.70;95.50
12408;DHT22;6268;48.188;17.134;2023-02-22T12:25:54;15.80;94.50
12408;DHT22;6268;48.188;17.134;2023-02-22T12:28:31;15.90;94.20
12408;DHT22;6268;48.188;17.134;2023-02-22T12:31:14;15.90;93.60
12408;DHT22;6268;48.188;17.134;2023-02-22T12:33:56;16.00;92.90
12408;DHT22;6268;48.188;17.134;2023-02-22T12:36:37;15.90;92.30
12408;DHT22;6268;48.188;17.134;2023-02-22T12:39:28;15.60;92.90
12408;DHT22;6268;48.188;17.134;2023-02-22T12:42:23;15.60;93.30
12408;DHT22;6268;48.188;17.134;2023-02-22T12:45:02;15.50;93.50
12408;DHT22;6268;48.188;17.134;2023-02-22T12:47:44;15.50;94.30
12408;DHT22;6268;48.188;17.134;2023-02-22T12:50:19;15.60;95.00
12408;DHT22;6268;48.188;17.134;2023-02-22T12:52:54;15.70;95.20
12408;DHT22;6268;48.188;17.134;2023-02-22T12:55:31;15.70;95.20
12408;DHT22;6268;48.188;17.134;2023-02-22T12:58:12;15.70;95.60
12408;DHT22;6268;48.188;17.134;2023-02-22T13:00:53;15.60;96.00
12408;DHT22;6268;48.188;17.134;2023-02-22T13:03:34;15.40;96.80
12408;DHT22;6268;48.188;17.134;2023-02-22T13:06:25;15.30;97.30
12408;DHT22;6268;48.188;17.134;2023-02-22T13:09:13;15.30;98.10
12408;DHT22;6268;48.188;17.134;2023-02-22T13:11:59;15.30;98.00
12408;DHT22;6268;48.188;17.134;2023-02-22T13:14:41;15.30;97.80
12408;DHT22;6268;48.188;17.134;2023-02-22T13:17:25;15.30;98.00
12408;DHT22;6268;48.188;17.134;2023-02-22T13:20:03;15.30;98.00
12408;DHT22;6268;48.188;17.134;2023-02-22T13:22:45;15.30;97.70
12408;DHT22;6268;48.188;17.134;2023-02-22T13:25:23;15.30;97.80
12408;DHT22;6268;48.188;17.134;2023-02-22T13:28:05;15.30;97.50
12408;DHT22;6268;48.188;17.134;2023-02-22T13:30:56;15.20;97.90
12408;DHT22;6268;48.188;17.134;2023-02-22T13:33:57;15.20;97.80
12408;DHT22;6268;48.188;17.134;2023-02-22T13:36:47;15.20;97.90
12408;DHT22;6268;48.188;17.134;2023-02-22T13:39:49;15.30;98.20
12408;DHT22;6268;48.188;17.134;2023-02-22T13:42:47;15.40;97.80
12408;DHT22;6268;48.188;17.134;2023-02-22T13:45:55;15.50;97.20
12408;DHT22;6268;48.188;17.134;2023-02-22T13:49:06;15.50;97.40
12408;DHT22;6268;48.188;17.134;2023-02-22T13:51:53;15.30;97.40
12408;DHT22;6268;48.188;17.134;2023-02-22T13:54:38;15.30;98.30
12408;DHT22;6268;48.188;17.134;2023-02-22T13:57:22;15.10;98.50
12408;DHT22;6268;48.188;17.134;2023-02-22T14:00:21;15.00;98.20
12408;DHT22;6268;48.188;17.134;2023-02-22T14:03:28;15.10;98.30
12408;DHT22;6268;48.188;17.134;2023-02-22T14:06:08;15.10;99.70
12408;DHT22;6268;48.188;17.134;2023-02-22T14:09:00;15.00;99.90
12408;DHT22;6268;48.188;17.134;2023-02-22T14:11:44;15.10;99.90
12408;DHT22;6268;48.188;17.134;2023-02-22T14:14:15;15.10;99.90
12408;DHT22;6268;48.188;17.134;2023-02-22T14:20:02;15.00;99.90
12408;DHT22;6268;48.188;17.134;2023-02-22T14:22:43;14.80;99.90
12408;DHT22;6268;48.188;17.134;2023-02-22T14:25:36;14.70;99.90
12408;DHT22;6268;48.188;17.134;2023-02-22T14:28:08;14.60;99.90
12408;DHT22;6268;48.188;17.134;2023-02-22T14:31:05;14.70;99.90
12408;DHT22;6268;48.188;17.134;2023-02-22T14:34:05;14.60;99.90
12408;DHT22;6268;48.188;17.134;2023-02-22T14:36:50;14.60;99.90
12408;DHT22;6268;48.188;17.134;2023-02-22T14:39:26;14.60;99.90
12408;DHT22;6268;48.188;17.134;2023-02-22T14:42:04;14.60;99.90
12408;DHT22;6268;48.188;17.134;2023-02-22T14:44:39;14.60;99.90
12408;DHT22;6268;48.188;17.134;2023-02-22T14:47:17;14.50;99.90
12408;DHT22;6268;48.188;17.134;2023-02-22T14:49:51;14.50;99.90
12408;DHT22;6268;48.188;17.134;2023-02-22T14:52:25;14.40;99.90
12408;DHT22;6268;48.188;17.134;2023-02-22T14:55:05;14.40;99.90
12408;DHT22;6268;48.188;17.134;2023-02-22T14:57:57;14.30;99.90
12408;DHT22;6268;48.188;17.134;2023-02-22T15:00:39;14.20;99.90
12408;DHT22;6268;48.188;17.134;2023-02-22T15:03:26;14.20;99.90
12408;DHT22;6268;48.188;17.134;2023-02-22T15:06:05;14.30;99.90
12408;DHT22;6268;48.188;17.134;2023-02-22T15:08:42;14.20;99.90
12408;DHT22;6268;48.188;17.134;2023-02-22T15:11:23;14.10;99.90
12408;DHT22;6268;48.188;17.134;2023-02-22T15:13:59;14.10;99.90
12408;DHT22;6268;48.188;17.134;2023-02-22T15:16:31;14.10;99.90
12408;DHT22;6268;48.188;17.134;2023-02-22T15:19:04;14.00;99.90
12408;DHT22;6268;48.188;17.134;2023-02-22T15:21:35;14.00;99.90
12408;DHT22;6268;48.188;17.134;2023-02-22T15:24:20;14.00;99.90
12408;DHT22;6268;48.188;17.134;2023-02-22T15:26:53;13.90;99.90
12408;DHT22;6268;48.188;17.134;2023-02-22T15:29:34;13.90;99.90
12408;DHT22;6268;48.188;17.134;2023-02-22T15:32:17;13.80;99.90
12408;DHT22;6268;48.188;17.134;2023-02-22T15:34:47;13.70;99.90
12408;DHT22;6268;48.188;17.134;2023-02-22T15:37:22;13.70;99.90
12408;DHT22;6268;48.188;17.134;2023-02-22T15:40:04;13.60;99.90
12408;DHT22;6268;48.188;17.134;2023-02-22T15:42:45;13.60;99.90
12408;DHT22;6268;48.188;17.134;2023-02-22T15:45:17;13.50;99.90
12408;DHT22;6268;48.188;17.134;2023-02-22T15:47:48;13.50;99.90
12408;DHT22;6268;48.188;17.134;2023-02-22T15:50:20;13.50;99.90
12408;DHT22;6268;48.188;17.134;2023-02-22T15:53:02;13.40;99.90
12408;DHT22;6268;48.188;17.134;2023-02-22T15:55:34;13.30;99.90
12408;DHT22;6268;48.188;17.134;2023-02-22T15:58:08;13.40;99.90
12408;DHT22;6268;48.188;17.134;2023-02-22T16:00:42;13.30;99.90
12408;DHT22;6268;48.188;17.134;2023-02-22T16:03:17;13.30;99.90
12408;DHT22;6268;48.188;17.134;2023-02-22T16:05:51;13.30;99.90
12408;DHT22;6268;48.188;17.134;2023-02-22T16:08:26;13.30;99.90
12408;DHT22;6268;48.188;17.134;2023-02-22T16:11:23;13.30;99.90
12408;DHT22;6268;48.188;17.134;2023-02-22T16:13:59;13.20;99.90
12408;DHT22;6268;48.188;17.134;2023-02-22T16:16:32;13.00;99.90
12408;DHT22;6268;48.188;17.134;2023-02-22T16:19:27;12.90;99.90
12408;DHT22;6268;48.188;17.134;2023-02-22T16:22:03;12.90;99.90
12408;DHT22;6268;48.188;17.134;2023-02-22T16:24:41;12.90;99.90
12408;DHT22;6268;48.188;17.134;2023-02-22T16:27:16;12.80;99.90
12408;DHT22;6268;48.188;17.134;2023-02-22T16:30:00;12.70;99.90
12408;DHT22;6268;48.188;17.134;2023-02-22T16:32:48;12.60;99.90
12408;DHT22;6268;48.188;17.134;2023-02-22T16:35:18;12.50;99.90
12408;DHT22;6268;48.188;17.134;2023-02-22T16:37:48;12.50;99.90
12408;DHT22;6268;48.188;17.134;2023-02-22T16:40:22;12.50;99.90